Millardsville, Pennsylvania
Current Conditions -  °F | °C
As of 11:42 AM on Wednesday 22 Oct 2014 (Local Time) from KMUI Reporting Station
Light Rain Light Rain  
Wind Chill: 54°   Ceiling: 1900
Heat Index: 54°   Visibility: 10mi
Dew Point: 54°   Wind: 10mph
Humidity: 100%   Direction: 10°N
Pressure: 29.98"   Gusts: 18mph
Location:  40.3869°N, 76.3173°W
Report Text: KMUI 221542Z AUTO 01009G16KT 10SM -RA BKN019 OVC026 12/12 A2998 RMK AO2 CIG 019V027 BKN V SCT $
Loading
Personal Weather Stations






























Interactive Weather Map New forecast layout! Learn more

10-Day Weather Forecast

Advertisements
Track Severe Weather on mobile